Darstellungsparameter: Aktuell verwendete Einstellungen:
Skalierung der Graphiken ... ?
xyx+y,   Skalierungsfaktor:      Skalierung: Modus: x, Faktor: 1
Darstellungszeitraum ... ?
Vom - - bis: - -   Zeitraum: 22.09.2010 - 24.09.2010
Min/Max/Avg-Anzeige ... ?
Zeige MMA aktuell
Zeige MMA Monat
Zeige MMA alles
Zeige --A aktuell
Zeige --A Monat
Zeige --A alles
Keine MMA-Anzeige
MMA:
Average (ber die Originaldaten)
MMA-Basis: 22.09.2010 - 24.09.2010
Quicknavigation für Darstellung... ?
Tage:      1T, 2T, 3T, 5T -1T -2T -3T -5T +1T +2T +3T +5T
Wochen: 1W, 2W, 3W -1W -2W -3W +1W +2W +3W
Monate: 1M, 3M, 6M -1M -3M -6M +1M +3M +6M
Jahre:    1J, 3J, 5J, 10J -1J -3J -5J -10J +1J +3J +5J +10J
Nutze für die Darstellung ... ?
Originaldaten oder Mittelwerte auf ...
Stundenbasis Tagesbasis Wochenbasis
Monatsbasis Jahresbasis      Datenbasis: Original-Daten
Darstellen als:
Statistik (Auto) Statistik J:M      Darstellung:
Zur Graphik,    zurück zur Übersicht aller Sensoren.
 
Tabellarische Datenbersicht: ?
 
Sensor: Nr:Datum:Temp:Abs-Feuchte:Windchill:Wind:
Aussen-T/F 1 22-09-2010 00:06:01 12.5 C 8.69 g/m*3 12.5 C 0 km/h
2 22-09-2010 00:18:01 12.3 C 8.58 g/m*3 12.3 C 0 km/h
3 22-09-2010 00:30:01 12.2 C 8.52 g/m*3 12.2 C 0 km/h
4 22-09-2010 00:42:01 12.1 C 8.47 g/m*3 12.1 C 0 km/h
5 22-09-2010 00:54:01 11.9 C 8.47 g/m*3 11.9 C 0 km/h
6 22-09-2010 01:06:02 11.8 C 8.53 g/m*3 11.8 C 0 km/h
7 22-09-2010 01:18:02 11.6 C 8.42 g/m*3 11.6 C 0 km/h
8 22-09-2010 01:30:02 11.5 C 8.47 g/m*3 11.5 C 0 km/h
9 22-09-2010 01:42:02 11.3 C 8.26 g/m*3 11.3 C 0 km/h
10 22-09-2010 01:54:02 11.3 C 8.36 g/m*3 11.3 C 0 km/h
11 22-09-2010 02:06:02 11 C 8.21 g/m*3 11 C 0 km/h
12 22-09-2010 02:18:02 10.9 C 8.16 g/m*3 10.9 C 0 km/h
13 22-09-2010 02:30:02 10.8 C 8.2 g/m*3 10.8 C 0 km/h
14 22-09-2010 02:42:02 10.7 C 8.15 g/m*3 10.7 C 0 km/h
15 22-09-2010 02:54:02 10.5 C 8.05 g/m*3 10.5 C 0 km/h
16 22-09-2010 03:06:02 10.4 C 8 g/m*3 10.4 C 0 km/h
17 22-09-2010 03:18:02 10.4 C 8 g/m*3 10.4 C 0 km/h
18 22-09-2010 03:30:02 10.3 C 8.04 g/m*3 10.3 C 0 km/h
19 22-09-2010 03:42:02 10.1 C 7.94 g/m*3 10.1 C 0 km/h
20 22-09-2010 03:54:02 9.9 C 8.03 g/m*3 9.9 C 0 km/h
21 22-09-2010 04:06:02 9.9 C 8.03 g/m*3 9.9 C 0 km/h
22 22-09-2010 04:18:02 9.7 C 7.93 g/m*3 9.7 C 0 km/h
23 22-09-2010 04:30:02 9.6 C 7.79 g/m*3 9.6 C 0 km/h
24 22-09-2010 04:42:02 9.6 C 7.88 g/m*3 9.6 C 0 km/h
25 22-09-2010 04:54:02 9.8 C 8.07 g/m*3 9.8 C 0 km/h
Sensor: Nr:Datum:Temp:Abs-Feuchte:Windchill:Wind:
Aussen-T/F 26 22-09-2010 05:06:02 9.8 C 8.07 g/m*3 9.8 C 0 km/h
27 22-09-2010 05:18:02 9.9 C 8.22 g/m*3 9.9 C 0 km/h
28 22-09-2010 05:30:03 9.9 C 8.22 g/m*3 9.9 C 0 km/h
29 22-09-2010 05:42:03 9.9 C 8.22 g/m*3 9.9 C 0 km/h
30 22-09-2010 05:54:03 9.7 C 8.02 g/m*3 9.7 C 0 km/h
31 22-09-2010 06:06:03 9.8 C 8.16 g/m*3 9.8 C 0 km/h
32 22-09-2010 06:18:03 9.8 C 8.16 g/m*3 9.8 C 0 km/h
33 22-09-2010 06:30:03 9.8 C 8.16 g/m*3 9.8 C 0 km/h
34 22-09-2010 06:42:03 9.7 C 8.11 g/m*3 9.7 C 0 km/h
35 22-09-2010 06:54:03 9.8 C 8.16 g/m*3 9.8 C 0 km/h
36 22-09-2010 07:06:01 9.8 C 8.16 g/m*3 9.8 C 0 km/h
37 22-09-2010 07:18:02 9.8 C 8.16 g/m*3 9.8 C 0 km/h
38 22-09-2010 07:30:02 9.6 C 8.06 g/m*3 9.6 C 0 km/h
39 22-09-2010 07:42:01 9.3 C 7.91 g/m*3 9.3 C 0 km/h
40 22-09-2010 07:54:01 9.3 C 7.91 g/m*3 9.3 C 0 km/h
41 22-09-2010 08:06:01 9.3 C 7.91 g/m*3 9.3 C 0 km/h
42 22-09-2010 08:18:02 9.3 C 7.91 g/m*3 9.3 C 0 km/h
43 22-09-2010 08:30:02 9.6 C 8.15 g/m*3 9.6 C 0 km/h
44 22-09-2010 08:42:01 9.3 C 7.91 g/m*3 9.3 C 0 km/h
45 22-09-2010 08:54:02 9.3 C 7.91 g/m*3 9.3 C 0 km/h
46 22-09-2010 09:06:01 9.6 C 8.06 g/m*3 9.6 C 0 km/h
47 22-09-2010 09:18:02 9.8 C 8.16 g/m*3 9.8 C 0 km/h
48 22-09-2010 09:30:02 10.2 C 8.09 g/m*3 10.2 C 0 km/h
49 22-09-2010 09:42:01 10.3 C 8.04 g/m*3 10.3 C 0 km/h
50 22-09-2010 09:54:02 11 C 8.41 g/m*3 11 C 0 km/h
Sensor: Nr:Datum:Temp:Abs-Feuchte:Windchill:Wind:
Aussen-T/F 51 22-09-2010 10:06:01 11.8 C 8.63 g/m*3 11.8 C 0 km/h
52 22-09-2010 10:18:01 12.4 C 8.74 g/m*3 12.4 C 0 km/h
53 22-09-2010 10:30:01 12 C 8.31 g/m*3 12 C 0 km/h
54 22-09-2010 10:42:02 12.7 C 8.79 g/m*3 12.7 C 0 km/h
55 22-09-2010 10:54:01 13.2 C 8.73 g/m*3 13.2 C 0 km/h
56 22-09-2010 11:06:02 12.9 C 8.68 g/m*3 12.9 C 0 km/h
57 22-09-2010 11:18:01 13.1 C 8.9 g/m*3 13.1 C 0 km/h
58 22-09-2010 11:30:01 13.6 C 9.3 g/m*3 13.6 C 0 km/h
59 22-09-2010 11:42:02 14.2 C 9.52 g/m*3 14.2 C 0 km/h
60 22-09-2010 11:54:01 15.1 C 9.55 g/m*3 15.1 C 0 km/h
61 22-09-2010 12:06:02 15.6 C 9.71 g/m*3 15.6 C 0 km/h
62 22-09-2010 12:18:01 16 C 9.67 g/m*3 16 C 0 km/h
63 22-09-2010 12:30:01 16.5 C 9.97 g/m*3 16.5 C 0 km/h
64 22-09-2010 12:42:01 17.1 C 10.19 g/m*3 17.1 C 0 km/h
65 22-09-2010 12:54:01 17.5 C 10.29 g/m*3 17.5 C 0 km/h
66 22-09-2010 13:06:01 18.4 C 9.91 g/m*3 18.4 C 0 km/h
67 22-09-2010 13:18:02 19.1 C 9.84 g/m*3 19.1 C 0 km/h
68 22-09-2010 13:30:02 19.7 C 10.19 g/m*3 19.7 C 0 km/h
69 22-09-2010 13:42:01 20.4 C 10.26 g/m*3 20.4 C 0 km/h
70 22-09-2010 13:54:01 21.2 C 10.19 g/m*3 21.2 C 0 km/h
71 22-09-2010 14:06:01 21.8 C 10.36 g/m*3 21.8 C 0 km/h
72 22-09-2010 14:18:02 22.2 C 10.01 g/m*3 22.2 C 0 km/h
73 22-09-2010 14:30:02 22.9 C 10.22 g/m*3 22.9 C 0 km/h
74 22-09-2010 14:42:01 23.4 C 9.88 g/m*3 23.4 C 0 km/h
75 22-09-2010 14:54:02 24 C 9.79 g/m*3 24 C 0 km/h
Sensor: Nr:Datum:Temp:Abs-Feuchte:Windchill:Wind:
Aussen-T/F 76 22-09-2010 15:06:01 24.2 C 9.9 g/m*3 24.2 C 0 km/h
77 22-09-2010 15:18:01 24.1 C 9.63 g/m*3 24.1 C 0 km/h
78 22-09-2010 15:30:01 24.9 C 9.61 g/m*3 24.9 C 0 km/h
79 22-09-2010 15:42:01 25.6 C 8.81 g/m*3 25.6 C 0 km/h
80 22-09-2010 15:54:01 26.5 C 8.26 g/m*3 26.5 C 0 km/h
81 22-09-2010 16:06:01 26.9 C 8.7 g/m*3 26.9 C 0 km/h
82 22-09-2010 16:18:01 27.1 C 8.8 g/m*3 27.1 C 0 km/h
83 22-09-2010 16:30:01 27.4 C 8.68 g/m*3 27.4 C 0 km/h
84 22-09-2010 16:42:02 27.6 C 8.51 g/m*3 27.6 C 0 km/h
85 22-09-2010 16:54:01 27.6 C 8.25 g/m*3 27.6 C 0 km/h
86 22-09-2010 17:06:02 27.3 C 7.85 g/m*3 27.3 C 0 km/h
87 22-09-2010 17:18:01 27.4 C 8.16 g/m*3 27.4 C 0 km/h
88 22-09-2010 17:30:01 27.2 C 8.07 g/m*3 27.2 C 0 km/h
89 22-09-2010 17:42:01 26.9 C 7.93 g/m*3 26.9 C 0 km/h
90 22-09-2010 17:54:01 26.5 C 8.76 g/m*3 26.5 C 0 km/h
91 22-09-2010 18:06:02 26.1 C 8.81 g/m*3 26.1 C 0 km/h
92 22-09-2010 18:18:01 25.6 C 9.05 g/m*3 25.6 C 0 km/h
93 22-09-2010 18:30:01 25.3 C 9.36 g/m*3 25.3 C 0 km/h
94 22-09-2010 18:42:01 24.1 C 8.97 g/m*3 24.1 C 0 km/h
95 22-09-2010 18:54:01 23.3 C 9.2 g/m*3 23.3 C 0 km/h
96 22-09-2010 19:06:01 22.5 C 9.19 g/m*3 22.5 C 0 km/h
97 22-09-2010 19:18:02 21.8 C 9.4 g/m*3 21.8 C 0 km/h
98 22-09-2010 19:30:02 20.6 C 9.31 g/m*3 20.6 C 0 km/h
99 22-09-2010 19:42:01 20 C 8.99 g/m*3 20 C 0 km/h
100 22-09-2010 19:54:01 19.5 C 9.06 g/m*3 19.5 C 0 km/h
Sensor: Nr:Datum:Temp:Abs-Feuchte:Windchill:Wind:
Aussen-T/F 101 22-09-2010 20:06:01 19 C 9.13 g/m*3 19 C 0 km/h
102 22-09-2010 20:18:02 18.7 C 9.13 g/m*3 18.7 C 0 km/h
103 22-09-2010 20:30:02 18.5 C 9.02 g/m*3 18.5 C 0 km/h
104 22-09-2010 20:42:01 18.4 C 9.12 g/m*3 18.4 C 0 km/h
105 22-09-2010 20:54:02 18.1 C 9.12 g/m*3 18.1 C 0 km/h
106 22-09-2010 21:06:01 17.9 C 9.31 g/m*3 17.9 C 0 km/h
107 22-09-2010 21:18:01 17.6 C 9.45 g/m*3 17.6 C 0 km/h
108 22-09-2010 21:30:01 17.5 C 9.24 g/m*3 17.5 C 0 km/h
109 22-09-2010 21:42:01 17.3 C 9.28 g/m*3 17.3 C 0 km/h
110 22-09-2010 21:54:01 17 C 9.26 g/m*3 17 C 0 km/h
111 22-09-2010 22:08:02 16.8 C 9.29 g/m*3 16.8 C 0 km/h
112 22-09-2010 22:20:02 16.4 C 9.35 g/m*3 16.4 C 0 km/h
113 22-09-2010 22:32:02 16.1 C 9.32 g/m*3 16.1 C 0 km/h
114 22-09-2010 22:44:02 15.9 C 9.21 g/m*3 15.9 C 0 km/h
115 22-09-2010 22:56:02 15.7 C 9.1 g/m*3 15.7 C 0 km/h
116 22-09-2010 23:08:02 15.4 C 8.8 g/m*3 15.4 C 0 km/h
117 22-09-2010 23:20:02 15.1 C 8.77 g/m*3 15.1 C 0 km/h
118 22-09-2010 23:32:02 14.9 C 8.79 g/m*3 14.9 C 0 km/h
119 22-09-2010 23:44:02 14.7 C 8.81 g/m*3 14.7 C 0 km/h
120 22-09-2010 23:56:02 14.5 C 8.71 g/m*3 14.5 C 0 km/h
121 23-09-2010 00:08:02 14.4 C 8.53 g/m*3 14.4 C 0 km/h
122 23-09-2010 00:20:02 14.2 C 8.67 g/m*3 14.2 C 0 km/h
123 23-09-2010 00:32:02 14 C 8.56 g/m*3 14 C 0 km/h
124 23-09-2010 00:44:02 13.8 C 8.7 g/m*3 13.8 C 0 km/h
125 23-09-2010 00:56:02 13.7 C 8.76 g/m*3 13.7 C 0 km/h
Sensor: Nr:Datum:Temp:Abs-Feuchte:Windchill:Wind:
Aussen-T/F 126 23-09-2010 01:08:02 13.5 C 8.77 g/m*3 13.5 C 0 km/h
127 23-09-2010 01:20:02 13.4 C 8.72 g/m*3 13.4 C 0 km/h
128 23-09-2010 01:32:02 13.2 C 8.73 g/m*3 13.2 C 0 km/h
129 23-09-2010 01:44:02 13.1 C 8.67 g/m*3 13.1 C 0 km/h
130 23-09-2010 01:56:03 12.9 C 8.68 g/m*3 12.9 C 0 km/h
131 23-09-2010 02:08:03 12.8 C 8.74 g/m*3 12.8 C 0 km/h
132 23-09-2010 02:20:03 12.6 C 8.74 g/m*3 12.6 C 0 km/h
133 23-09-2010 02:32:03 12.4 C 8.74 g/m*3 12.4 C 0 km/h
134 23-09-2010 02:44:03 12.3 C 8.69 g/m*3 12.3 C 0 km/h
135 23-09-2010 02:56:03 12.1 C 8.58 g/m*3 12.1 C 0 km/h
136 23-09-2010 03:08:03 12 C 8.53 g/m*3 12 C 0 km/h
137 23-09-2010 03:20:03 11.8 C 8.53 g/m*3 11.8 C 0 km/h
138 23-09-2010 03:32:03 11.8 C 8.53 g/m*3 11.8 C 0 km/h
139 23-09-2010 03:44:03 11.8 C 8.63 g/m*3 11.8 C 0 km/h
140 23-09-2010 03:56:03 11.6 C 8.63 g/m*3 11.6 C 0 km/h
141 23-09-2010 04:08:03 11.4 C 8.52 g/m*3 11.4 C 0 km/h
142 23-09-2010 04:20:03 11.2 C 8.41 g/m*3 11.2 C 0 km/h
143 23-09-2010 04:32:03 11.2 C 8.41 g/m*3 11.2 C 0 km/h
144 23-09-2010 04:44:03 11 C 8.31 g/m*3 11 C 0 km/h
145 23-09-2010 04:56:03 11 C 8.31 g/m*3 11 C 0 km/h
146 23-09-2010 05:08:03 10.9 C 8.36 g/m*3 10.9 C 0 km/h
147 23-09-2010 05:20:03 10.7 C 8.25 g/m*3 10.7 C 0 km/h
148 23-09-2010 05:32:03 10.6 C 8.2 g/m*3 10.6 C 0 km/h
149 23-09-2010 05:44:03 10.5 C 8.15 g/m*3 10.5 C 0 km/h
150 23-09-2010 05:56:03 10.5 C 8.15 g/m*3 10.5 C 0 km/h
Sensor: Nr:Datum:Temp:Abs-Feuchte:Windchill:Wind:
Aussen-T/F 151 23-09-2010 06:08:03 10.4 C 8.1 g/m*3 10.4 C 0 km/h
152 23-09-2010 06:20:04 10.5 C 8.24 g/m*3 10.5 C 0 km/h
153 23-09-2010 06:32:04 10.6 C 8.3 g/m*3 10.6 C 0 km/h
154 23-09-2010 06:44:04 10.4 C 8.19 g/m*3 10.4 C 0 km/h
155 23-09-2010 06:56:04 10.4 C 8.19 g/m*3 10.4 C 0 km/h
156 23-09-2010 07:08:02 10.5 C 8.24 g/m*3 10.5 C 0 km/h
157 23-09-2010 07:20:01 10.4 C 8.19 g/m*3 10.4 C 0 km/h
158 23-09-2010 07:32:02 10.5 C 8.24 g/m*3 10.5 C 0 km/h
159 23-09-2010 07:44:02 10.6 C 8.3 g/m*3 10.6 C 0 km/h
160 23-09-2010 07:56:02 10.6 C 8.3 g/m*3 10.6 C 0 km/h
161 23-09-2010 08:08:02 10.6 C 8.3 g/m*3 10.6 C 0 km/h
162 23-09-2010 08:20:01 10.7 C 8.35 g/m*3 10.7 C 0 km/h
163 23-09-2010 08:32:02 10.8 C 8.4 g/m*3 10.8 C 0 km/h
164 23-09-2010 08:44:02 11 C 8.51 g/m*3 11 C 0 km/h
165 23-09-2010 08:56:02 11.3 C 8.57 g/m*3 11.3 C 0 km/h
166 23-09-2010 09:08:01 11.4 C 8.52 g/m*3 11.4 C 0 km/h
167 23-09-2010 09:20:01 11.4 C 8.52 g/m*3 11.4 C 0 km/h
168 23-09-2010 09:32:02 11.4 C 8.52 g/m*3 11.4 C 0 km/h
169 23-09-2010 09:44:02 11.7 C 8.79 g/m*3 11.7 C 0 km/h
170 23-09-2010 09:56:02 12.3 C 8.9 g/m*3 12.3 C 0 km/h
171 23-09-2010 10:08:02 12.4 C 8.96 g/m*3 12.4 C 0 km/h
172 23-09-2010 10:20:02 12.5 C 9.02 g/m*3 12.5 C 0 km/h
173 23-09-2010 10:32:02 12.9 C 9.24 g/m*3 12.9 C 0 km/h
174 23-09-2010 10:44:02 13.3 C 9.36 g/m*3 13.3 C 0 km/h
175 23-09-2010 10:56:02 13.8 C 9.65 g/m*3 13.8 C 0 km/h
Sensor: Nr:Datum:Temp:Abs-Feuchte:Windchill:Wind:
Aussen-T/F 176 23-09-2010 11:08:02 14.1 C 9.71 g/m*3 14.1 C 0 km/h
177 23-09-2010 11:20:02 15 C 10 g/m*3 15 C 0 km/h
178 23-09-2010 11:32:02 15.8 C 10.23 g/m*3 15.8 C 0 km/h
179 23-09-2010 11:44:02 16.3 C 10.13 g/m*3 16.3 C 0 km/h
180 23-09-2010 11:56:02 17 C 10.27 g/m*3 17 C 0 km/h
181 23-09-2010 12:08:02 17.5 C 10.44 g/m*3 17.5 C 0 km/h
182 23-09-2010 12:20:02 18 C 10.44 g/m*3 18 C 0 km/h
183 23-09-2010 12:32:02 18.7 C 10.73 g/m*3 18.7 C 0 km/h
184 23-09-2010 12:44:02 19.2 C 10.55 g/m*3 19.2 C 0 km/h
185 23-09-2010 12:56:02 19.9 C 10.82 g/m*3 19.9 C 0 km/h
186 23-09-2010 13:08:02 20.5 C 11.03 g/m*3 20.5 C 0 km/h
187 23-09-2010 13:20:02 21.4 C 11.06 g/m*3 21.4 C 0 km/h
188 23-09-2010 13:32:01 22.3 C 11.26 g/m*3 22.3 C 0 km/h
189 23-09-2010 13:44:01 23.3 C 10.66 g/m*3 23.3 C 0 km/h
190 23-09-2010 13:56:02 24 C 9.14 g/m*3 24 C 0 km/h
191 23-09-2010 14:08:01 24.5 C 9.62 g/m*3 24.5 C 0 km/h
192 23-09-2010 14:20:02 23.8 C 10.11 g/m*3 23.8 C 0 km/h
193 23-09-2010 14:32:02 23.7 C 10.48 g/m*3 23.7 C 0 km/h
194 23-09-2010 14:44:02 23.8 C 10.54 g/m*3 23.8 C 0 km/h
195 23-09-2010 14:56:02 24.5 C 10.3 g/m*3 24.5 C 0 km/h
196 23-09-2010 15:08:02 25.2 C 8.85 g/m*3 25.2 C 0 km/h
197 23-09-2010 15:20:02 25.2 C 9.78 g/m*3 25.2 C 0 km/h
198 23-09-2010 15:32:02 24.8 C 9.33 g/m*3 24.8 C 0 km/h
199 23-09-2010 15:44:03 25.1 C 9.26 g/m*3 25.1 C 0 km/h
200 23-09-2010 15:56:01 24.9 C 9.61 g/m*3 24.9 C 0 km/h
Sensor: Nr:Datum:Temp:Abs-Feuchte:Windchill:Wind:
Aussen-T/F 201 23-09-2010 16:08:02 25.1 C 10.19 g/m*3 25.1 C 0 km/h
202 23-09-2010 16:20:01 26 C 9.74 g/m*3 26 C 0 km/h
203 23-09-2010 16:32:01 25.6 C 9.05 g/m*3 25.6 C 0 km/h
204 23-09-2010 16:44:01 24.9 C 10.07 g/m*3 24.9 C 0 km/h
205 23-09-2010 16:56:01 24.1 C 10.28 g/m*3 24.1 C 0 km/h
206 23-09-2010 17:08:01 23.7 C 10.91 g/m*3 23.7 C 0 km/h
207 23-09-2010 17:20:02 23.4 C 10.72 g/m*3 23.4 C 0 km/h
208 23-09-2010 17:32:01 23.2 C 10.81 g/m*3 23.2 C 0 km/h
209 23-09-2010 17:44:01 23.3 C 10.45 g/m*3 23.3 C 0 km/h
210 23-09-2010 17:56:02 23.8 C 10.76 g/m*3 23.8 C 0 km/h
211 23-09-2010 18:08:01 23.3 C 10.45 g/m*3 23.3 C 0 km/h
212 23-09-2010 18:20:02 22.6 C 10.25 g/m*3 22.6 C 0 km/h
213 23-09-2010 18:32:01 21.7 C 10.68 g/m*3 21.7 C 0 km/h
214 23-09-2010 18:44:01 21.6 C 10.81 g/m*3 21.6 C 0 km/h
215 23-09-2010 18:56:02 21.4 C 10.87 g/m*3 21.4 C 0 km/h
216 23-09-2010 19:08:02 20.9 C 10.93 g/m*3 20.9 C 0 km/h
217 23-09-2010 19:20:02 20.4 C 10.97 g/m*3 20.4 C 0 km/h
218 23-09-2010 19:32:02 19.8 C 11.1 g/m*3 19.8 C 0 km/h
219 23-09-2010 19:44:02 19.4 C 11.18 g/m*3 19.4 C 0 km/h
220 23-09-2010 19:56:02 19 C 11.08 g/m*3 19 C 0 km/h
221 23-09-2010 20:08:01 18.8 C 11.43 g/m*3 18.8 C 0 km/h
222 23-09-2010 20:20:02 18.6 C 11.3 g/m*3 18.6 C 0 km/h
223 23-09-2010 20:32:02 18.6 C 11.3 g/m*3 18.6 C 0 km/h
224 23-09-2010 20:44:02 18.4 C 11.32 g/m*3 18.4 C 0 km/h
225 23-09-2010 20:56:02 18.1 C 11.12 g/m*3 18.1 C 0 km/h
Sensor: Nr:Datum:Temp:Abs-Feuchte:Windchill:Wind:
Aussen-T/F 226 23-09-2010 21:08:02 18.4 C 11.48 g/m*3 18.4 C 0 km/h
227 23-09-2010 21:20:01 18.3 C 11.41 g/m*3 18.3 C 0 km/h
228 23-09-2010 21:32:02 18.4 C 11.64 g/m*3 18.4 C 0 km/h
229 23-09-2010 21:44:02 18.7 C 11.53 g/m*3 18.7 C 0 km/h
230 23-09-2010 21:57:02 18.7 C 11.37 g/m*3 18.7 C 0 km/h
231 23-09-2010 22:09:02 18.5 C 11.23 g/m*3 18.5 C 0 km/h
232 23-09-2010 22:21:02 18.5 C 11.39 g/m*3 18.5 C 0 km/h
233 23-09-2010 22:33:02 17.9 C 11.6 g/m*3 17.9 C 0 km/h
234 23-09-2010 22:45:02 17.7 C 12.52 g/m*3 17.7 C 0 km/h
235 23-09-2010 22:57:02 17.1 C 12.23 g/m*3 17.1 C 0 km/h
236 23-09-2010 23:09:02 16.9 C 12.37 g/m*3 16.9 C 0 km/h
237 23-09-2010 23:21:02 16.5 C 12.22 g/m*3 16.5 C 0 km/h
238 23-09-2010 23:33:02 16.4 C 12.28 g/m*3 16.4 C 0 km/h
239 23-09-2010 23:45:02 16.2 C 12.14 g/m*3 16.2 C 0 km/h
240 23-09-2010 23:57:02 16.2 C 12.27 g/m*3 16.2 C 0 km/h
241 24-09-2010 00:09:02 16 C 12.13 g/m*3 16 C 0 km/h
242 24-09-2010 00:21:02 15.9 C 12.32 g/m*3 15.9 C 0 km/h
243 24-09-2010 00:33:02 15.6 C 12.1 g/m*3 15.6 C 0 km/h
244 24-09-2010 00:45:02 15.5 C 12.16 g/m*3 15.5 C 0 km/h
245 24-09-2010 00:57:02 15.5 C 12.16 g/m*3 15.5 C 0 km/h
246 24-09-2010 01:09:02 15.5 C 12.16 g/m*3 15.5 C 0 km/h
247 24-09-2010 01:21:02 15.5 C 12.29 g/m*3 15.5 C 0 km/h
248 24-09-2010 01:33:02 15.6 C 12.37 g/m*3 15.6 C 0 km/h
249 24-09-2010 01:45:02 15.6 C 12.37 g/m*3 15.6 C 0 km/h
250 24-09-2010 01:57:03 15.5 C 12.29 g/m*3 15.5 C 0 km/h
Sensor: Nr:Datum:Temp:Abs-Feuchte:Windchill:Wind:
Aussen-T/F 251 24-09-2010 02:09:03 15.5 C 12.29 g/m*3 15.5 C 0 km/h
252 24-09-2010 02:21:03 15.5 C 12.29 g/m*3 15.5 C 0 km/h
253 24-09-2010 02:33:03 15.4 C 12.22 g/m*3 15.4 C 0 km/h
254 24-09-2010 02:45:03 15.3 C 12.01 g/m*3 15.3 C 0 km/h
255 24-09-2010 02:57:03 15.2 C 11.94 g/m*3 15.2 C 0 km/h
256 24-09-2010 03:09:03 15.1 C 11.87 g/m*3 15.1 C 0 km/h
257 24-09-2010 03:21:03 14.9 C 11.85 g/m*3 14.9 C 0 km/h
258 24-09-2010 03:33:03 14.9 C 11.85 g/m*3 14.9 C 0 km/h
259 24-09-2010 03:45:03 14.9 C 11.98 g/m*3 14.9 C 0 km/h
260 24-09-2010 03:57:03 14.9 C 11.98 g/m*3 14.9 C 0 km/h
261 24-09-2010 04:09:03 14.8 C 11.91 g/m*3 14.8 C 0 km/h
262 24-09-2010 04:21:03 14.8 C 11.91 g/m*3 14.8 C 0 km/h
263 24-09-2010 04:33:03 14.8 C 11.91 g/m*3 14.8 C 0 km/h
264 24-09-2010 04:45:03 14.8 C 11.91 g/m*3 14.8 C 0 km/h
265 24-09-2010 04:57:03 14.7 C 11.83 g/m*3 14.7 C 0 km/h
266 24-09-2010 05:09:03 14.5 C 11.69 g/m*3 14.5 C 0 km/h
267 24-09-2010 05:21:03 14.5 C 11.69 g/m*3 14.5 C 0 km/h
268 24-09-2010 05:33:03 14.5 C 11.69 g/m*3 14.5 C 0 km/h
269 24-09-2010 05:45:03 14.6 C 11.76 g/m*3 14.6 C 0 km/h
270 24-09-2010 05:57:03 14.6 C 11.76 g/m*3 14.6 C 0 km/h
271 24-09-2010 06:09:03 14.7 C 11.83 g/m*3 14.7 C 0 km/h
272 24-09-2010 06:21:04 14.7 C 11.83 g/m*3 14.7 C 0 km/h
273 24-09-2010 06:33:04 14.7 C 11.83 g/m*3 14.7 C 0 km/h
274 24-09-2010 06:45:04 14.7 C 11.83 g/m*3 14.7 C 0 km/h
275 24-09-2010 06:57:04 14.7 C 11.83 g/m*3 14.7 C 0 km/h
Sensor: Nr:Datum:Temp:Abs-Feuchte:Windchill:Wind:
Aussen-T/F 276 24-09-2010 07:09:04 14.5 C 11.69 g/m*3 14.5 C 0 km/h
277 24-09-2010 07:21:04 14.4 C 11.62 g/m*3 14.4 C 0 km/h
278 24-09-2010 07:33:02 14.3 C 11.55 g/m*3 14.3 C 0 km/h
279 24-09-2010 07:45:02 14.4 C 11.62 g/m*3 14.4 C 0 km/h
280 24-09-2010 07:57:02 14.4 C 11.62 g/m*3 14.4 C 0 km/h
281 24-09-2010 08:09:02 14.4 C 11.62 g/m*3 14.4 C 0 km/h
282 24-09-2010 08:21:01 14.3 C 11.55 g/m*3 14.3 C 0 km/h
283 24-09-2010 08:33:02 14.6 C 11.89 g/m*3 14.6 C 0 km/h
284 24-09-2010 08:45:02 14.8 C 12.03 g/m*3 14.8 C 0 km/h
285 24-09-2010 08:57:02 14.8 C 12.03 g/m*3 14.8 C 0 km/h
286 24-09-2010 09:09:01 14.8 C 12.03 g/m*3 14.8 C 0 km/h
287 24-09-2010 09:21:02 14.8 C 12.03 g/m*3 14.8 C 0 km/h
288 24-09-2010 09:33:01 14.9 C 12.11 g/m*3 14.9 C 0 km/h
289 24-09-2010 09:45:02 14.9 C 12.11 g/m*3 14.9 C 0 km/h
290 24-09-2010 09:57:02 15 C 12.05 g/m*3 15 C 0 km/h
291 24-09-2010 10:09:02 15 C 12.05 g/m*3 15 C 0 km/h
292 24-09-2010 10:21:02 14.9 C 12.11 g/m*3 14.9 C 0 km/h
293 24-09-2010 10:33:02 15 C 12.05 g/m*3 15 C 0 km/h
294 24-09-2010 10:45:01 15 C 12.05 g/m*3 15 C 0 km/h
295 24-09-2010 10:57:01 15 C 12.05 g/m*3 15 C 0 km/h
296 24-09-2010 11:09:02 15.1 C 12.13 g/m*3 15.1 C 0 km/h
297 24-09-2010 11:21:01 15.1 C 12.13 g/m*3 15.1 C 0 km/h
298 24-09-2010 11:33:01 15.4 C 12.35 g/m*3 15.4 C 0 km/h
299 24-09-2010 11:45:02 15.4 C 12.35 g/m*3 15.4 C 0 km/h
300 24-09-2010 11:57:02 15.1 C 12.13 g/m*3 15.1 C 0 km/h
Sensor: Nr:Datum:Temp:Abs-Feuchte:Windchill:Wind:
Aussen-T/F 301 24-09-2010 12:09:02 15.1 C 12.13 g/m*3 15.1 C 0 km/h
302 24-09-2010 12:21:02 15.1 C 12.13 g/m*3 15.1 C 0 km/h
303 24-09-2010 12:33:03 15.4 C 12.48 g/m*3 15.4 C 0 km/h
304 24-09-2010 12:45:02 15.1 C 12.13 g/m*3 15.1 C 0 km/h
305 24-09-2010 12:57:03 15 C 12.05 g/m*3 15 C 0 km/h
306 24-09-2010 13:09:02 14.8 C 11.91 g/m*3 14.8 C 0 km/h
307 24-09-2010 13:21:02 14.6 C 11.76 g/m*3 14.6 C 0 km/h
308 24-09-2010 13:33:02 14.5 C 11.69 g/m*3 14.5 C 0 km/h
309 24-09-2010 13:45:02 14.5 C 11.69 g/m*3 14.5 C 0 km/h
310 24-09-2010 13:57:02 14.4 C 11.62 g/m*3 14.4 C 0 km/h
311 24-09-2010 14:09:03 14.1 C 11.41 g/m*3 14.1 C 0 km/h
312 24-09-2010 14:21:02 13.8 C 11.2 g/m*3 13.8 C 0 km/h
313 24-09-2010 14:33:03 13.5 C 10.99 g/m*3 13.5 C 0 km/h
314 24-09-2010 14:45:02 13.2 C 10.79 g/m*3 13.2 C 0 km/h
315 24-09-2010 14:57:02 13.1 C 10.73 g/m*3 13.1 C 0 km/h
316 24-09-2010 15:09:02 12.9 C 10.71 g/m*3 12.9 C 0 km/h
317 24-09-2010 15:21:03 13.1 C 10.73 g/m*3 13.1 C 0 km/h
318 24-09-2010 15:33:02 13 C 10.77 g/m*3 13 C 0 km/h
319 24-09-2010 15:45:03 13.2 C 10.91 g/m*3 13.2 C 0 km/h
320 24-09-2010 15:57:03 13.2 C 10.91 g/m*3 13.2 C 0 km/h
321 24-09-2010 16:09:02 13.3 C 10.98 g/m*3 13.3 C 0 km/h
322 24-09-2010 16:21:02 13.7 C 11.25 g/m*3 13.7 C 0 km/h
323 24-09-2010 16:33:02 14 C 11.46 g/m*3 14 C 0 km/h
324 24-09-2010 16:45:02 14.1 C 11.53 g/m*3 14.1 C 0 km/h
325 24-09-2010 16:57:02 13.9 C 11.39 g/m*3 13.9 C 0 km/h
Sensor: Nr:Datum:Temp:Abs-Feuchte:Windchill:Wind:
Aussen-T/F 326 24-09-2010 17:09:02 13.9 C 11.39 g/m*3 13.9 C 0 km/h
327 24-09-2010 17:21:02 13.9 C 11.39 g/m*3 13.9 C 0 km/h
328 24-09-2010 17:33:02 13.4 C 10.93 g/m*3 13.4 C 0 km/h
329 24-09-2010 17:45:02 13.2 C 10.79 g/m*3 13.2 C 0 km/h
330 24-09-2010 17:57:02 13 C 10.66 g/m*3 13 C 0 km/h
331 24-09-2010 18:09:01 13.2 C 10.79 g/m*3 13.2 C 0 km/h
332 24-09-2010 18:21:01 13.3 C 10.86 g/m*3 13.3 C 0 km/h
333 24-09-2010 18:33:02 13.3 C 10.86 g/m*3 13.3 C 0 km/h
334 24-09-2010 18:45:02 13.3 C 10.86 g/m*3 13.3 C 0 km/h
335 24-09-2010 18:57:02 13.2 C 10.79 g/m*3 13.2 C 0 km/h
336 24-09-2010 19:09:02 13.1 C 10.73 g/m*3 13.1 C 0 km/h
337 24-09-2010 19:21:01 12.9 C 10.71 g/m*3 12.9 C 0 km/h
338 24-09-2010 19:33:02 12.8 C 10.64 g/m*3 12.8 C 0 km/h
339 24-09-2010 19:45:02 12.7 C 10.58 g/m*3 12.7 C 0 km/h
340 24-09-2010 19:57:02 12.7 C 10.58 g/m*3 12.7 C 0 km/h
341 24-09-2010 20:09:02 12.7 C 10.58 g/m*3 12.7 C 0 km/h
342 24-09-2010 20:21:01 12.7 C 10.58 g/m*3 12.7 C 0 km/h
343 24-09-2010 20:33:02 12.7 C 10.58 g/m*3 12.7 C 0 km/h
344 24-09-2010 20:45:01 12.7 C 10.58 g/m*3 12.7 C 0 km/h
345 24-09-2010 20:57:01 12.7 C 10.58 g/m*3 12.7 C 0 km/h
346 24-09-2010 21:09:02 12.8 C 10.64 g/m*3 12.8 C 0 km/h
347 24-09-2010 21:21:02 12.8 C 10.64 g/m*3 12.8 C 0 km/h
348 24-09-2010 21:33:02 12.9 C 10.71 g/m*3 12.9 C 0 km/h
349 24-09-2010 21:45:02 12.8 C 10.64 g/m*3 12.8 C 0 km/h
350 24-09-2010 21:57:02 12.8 C 10.64 g/m*3 12.8 C 0 km/h
Sensor: Nr:Datum:Temp:Abs-Feuchte:Windchill:Wind:
Aussen-T/F 351 24-09-2010 22:09:01 12.8 C 10.64 g/m*3 12.8 C 0 km/h
352 24-09-2010 22:21:02 12.8 C 10.64 g/m*3 12.8 C 0 km/h
353 24-09-2010 22:33:02 12.7 C 10.58 g/m*3 12.7 C 0 km/h
354 24-09-2010 22:46:04 12.6 C 10.51 g/m*3 12.6 C 0 km/h
355 24-09-2010 22:58:04 12.6 C 10.51 g/m*3 12.6 C 0 km/h
356 24-09-2010 23:10:04 12.5 C 10.44 g/m*3 12.5 C 0 km/h
357 24-09-2010 23:22:04 12.4 C 10.38 g/m*3 12.4 C 0 km/h
358 24-09-2010 23:34:04 12.4 C 10.38 g/m*3 12.4 C 0 km/h
359 24-09-2010 23:46:04 12.3 C 10.32 g/m*3 12.3 C 0 km/h
360 24-09-2010 23:58:04 12.4 C 10.38 g/m*3 12.4 C 0 km/h

Legende:
   Min
   Max


Maximal/Minimal-Werte vom 22.09.2010 - 24.09.2010

Sensor Min Max Avg
Temp
(Aussen-T/F)
9.3 °C
22-09-2010  07:42:01
27.6 °C
22-09-2010  16:42:02
15.53 °C
Abs-Feuchte
(Aussen-T/F)
7.79 g/m*3
22-09-2010  04:30:02
12.52 g/m*3
23-09-2010  22:45:02
9.97 g/m*3
Windchill
(Aussen-T/F)
9.3 C
22-09-2010  07:42:01
27.6 C
22-09-2010  16:42:02
15.49 C

Die Daten stammen von einer Davis Vantage Pro 2 Wetter-Station und werden unter Linux mit der Software wview2wettercgi und aufbereitet. Alle Angaben erfolgen ohne Gewähr für ihre Vollständigkeit oder Richtigkeit.
Kontakt: Rainer Krienke krienke@uni-koblenz.de . Meine Webseiten an der Uni Koblenz oder privat.
Version: $Revision: 0.78 $